Vinemont, Pennsylvania
Current Conditions -  °F | °C
As of 2:54 PM on Wednesday 17 Dec 2014 (Local Time) from KRDG Reporting Station
Overcast Overcast  
Wind Chill: 39°   Ceiling: 3700
Heat Index: 46°   Visibility: 10mi
Dew Point: 31°   Wind: 17mph
Humidity: 56%   Direction: 290°WNW
Pressure: 29.91"   Gusts: 25mph
Location:  40.2731°N, 76.0902°W
Report Text: KRDG 171954Z 29015G22KT 10SM BKN037 OVC048 08/M01 A2991 RMK AO2 SLP137 T00781006
Loading
Personal Weather Stations






























Interactive Weather Map New forecast layout! Learn more

10-Day Weather Forecast

Advertisements
Track Severe Weather on mobile